sensor_id;sensor_type;location;lat;lon;timestamp;temperature;humidity
1083;DHT22;530;51.448;7.238;2023-04-24T00:00:15;12.40;99.90
1083;DHT22;530;51.448;7.238;2023-04-24T00:02:45;12.40;99.90
1083;DHT22;530;51.448;7.238;2023-04-24T00:05:16;12.40;99.90
1083;DHT22;530;51.448;7.238;2023-04-24T00:07:44;12.40;99.90
1083;DHT22;530;51.448;7.238;2023-04-24T00:10:11;12.40;99.90
1083;DHT22;530;51.448;7.238;2023-04-24T00:12:37;12.30;99.90
1083;DHT22;530;51.448;7.238;2023-04-24T00:15:04;12.30;99.90
1083;DHT22;530;51.448;7.238;2023-04-24T00:17:30;12.30;99.90
1083;DHT22;530;51.448;7.238;2023-04-24T00:19:55;12.30;99.90
1083;DHT22;530;51.448;7.238;2023-04-24T00:22:25;12.20;99.90
1083;DHT22;530;51.448;7.238;2023-04-24T00:24:51;12.20;99.90
1083;DHT22;530;51.448;7.238;2023-04-24T00:27:17;12.20;99.90
1083;DHT22;530;51.448;7.238;2023-04-24T00:29:42;12.20;99.90
1083;DHT22;530;51.448;7.238;2023-04-24T00:32:08;12.10;99.90
1083;DHT22;530;51.448;7.238;2023-04-24T00:34:34;12.10;99.90
1083;DHT22;530;51.448;7.238;2023-04-24T00:37:00;12.10;99.90
1083;DHT22;530;51.448;7.238;2023-04-24T00:39:26;12.10;99.90
1083;DHT22;530;51.448;7.238;2023-04-24T00:41:52;12.00;99.90
1083;DHT22;530;51.448;7.238;2023-04-24T00:44:18;12.00;99.90
1083;DHT22;530;51.448;7.238;2023-04-24T00:46:44;12.00;99.90
1083;DHT22;530;51.448;7.238;2023-04-24T00:49:09;12.00;99.90
1083;DHT22;530;51.448;7.238;2023-04-24T00:51:35;12.00;99.90
1083;DHT22;530;51.448;7.238;2023-04-24T00:54:02;12.00;99.90
1083;DHT22;530;51.448;7.238;2023-04-24T00:56:28;12.00;99.90
1083;DHT22;530;51.448;7.238;2023-04-24T00:58:54;11.90;99.90
1083;DHT22;530;51.448;7.238;2023-04-24T01:01:21;11.90;99.90
1083;DHT22;530;51.448;7.238;2023-04-24T01:03:47;11.90;99.90
1083;DHT22;530;51.448;7.238;2023-04-24T01:06:14;11.80;99.90
1083;DHT22;530;51.448;7.238;2023-04-24T01:08:41;11.80;99.90
1083;DHT22;530;51.448;7.238;2023-04-24T01:11:07;11.80;99.90
1083;DHT22;530;51.448;7.238;2023-04-24T01:13:33;11.90;99.90
1083;DHT22;530;51.448;7.238;2023-04-24T01:16:00;11.80;99.90
1083;DHT22;530;51.448;7.238;2023-04-24T01:18:26;11.80;99.90
1083;DHT22;530;51.448;7.238;2023-04-24T01:20:56;11.80;99.90
1083;DHT22;530;51.448;7.238;2023-04-24T01:23:22;11.70;99.90
1083;DHT22;530;51.448;7.238;2023-04-24T01:25:49;11.70;99.90
1083;DHT22;530;51.448;7.238;2023-04-24T01:28:16;11.70;99.90
1083;DHT22;530;51.448;7.238;2023-04-24T01:30:42;11.70;99.90
1083;DHT22;530;51.448;7.238;2023-04-24T01:33:08;11.70;99.90
1083;DHT22;530;51.448;7.238;2023-04-24T01:35:34;11.70;99.90
1083;DHT22;530;51.448;7.238;2023-04-24T01:38:01;11.70;99.90
1083;DHT22;530;51.448;7.238;2023-04-24T01:40:27;11.70;99.90
1083;DHT22;530;51.448;7.238;2023-04-24T01:42:53;11.70;99.90
1083;DHT22;530;51.448;7.238;2023-04-24T01:45:19;11.70;99.90
1083;DHT22;530;51.448;7.238;2023-04-24T01:47:45;11.70;99.90
1083;DHT22;530;51.448;7.238;2023-04-24T01:50:11;11.60;99.90
1083;DHT22;530;51.448;7.238;2023-04-24T01:52:37;11.60;99.90
1083;DHT22;530;51.448;7.238;2023-04-24T01:55:04;11.60;99.90
1083;DHT22;530;51.448;7.238;2023-04-24T01:57:31;11.60;99.90
1083;DHT22;530;51.448;7.238;2023-04-24T01:59:57;11.60;99.90
1083;DHT22;530;51.448;7.238;2023-04-24T02:02:23;11.60;99.90
1083;DHT22;530;51.448;7.238;2023-04-24T02:04:56;11.60;99.90
1083;DHT22;530;51.448;7.238;2023-04-24T02:07:22;11.60;99.90
1083;DHT22;530;51.448;7.238;2023-04-24T02:09:48;11.50;99.90
1083;DHT22;530;51.448;7.238;2023-04-24T02:12:14;11.50;99.90
1083;DHT22;530;51.448;7.238;2023-04-24T02:14:40;11.50;99.90
1083;DHT22;530;51.448;7.238;2023-04-24T02:17:07;11.50;99.90
1083;DHT22;530;51.448;7.238;2023-04-24T02:19:33;11.50;99.90
1083;DHT22;530;51.448;7.238;2023-04-24T02:21:59;11.40;99.90
1083;DHT22;530;51.448;7.238;2023-04-24T02:24:24;11.30;99.90
1083;DHT22;530;51.448;7.238;2023-04-24T02:26:50;11.20;99.90
1083;DHT22;530;51.448;7.238;2023-04-24T02:29:16;11.20;99.90
1083;DHT22;530;51.448;7.238;2023-04-24T02:31:41;11.20;99.90
1083;DHT22;530;51.448;7.238;2023-04-24T02:34:07;11.10;99.90
1083;DHT22;530;51.448;7.238;2023-04-24T02:36:33;11.10;99.90
1083;DHT22;530;51.448;7.238;2023-04-24T02:38:58;11.00;99.90
1083;DHT22;530;51.448;7.238;2023-04-24T02:41:24;11.00;99.90
1083;DHT22;530;51.448;7.238;2023-04-24T02:43:50;11.00;99.90
1083;DHT22;530;51.448;7.238;2023-04-24T02:46:15;11.00;99.90
1083;DHT22;530;51.448;7.238;2023-04-24T02:48:41;11.00;99.90
1083;DHT22;530;51.448;7.238;2023-04-24T02:51:07;11.00;99.90
1083;DHT22;530;51.448;7.238;2023-04-24T02:53:32;11.00;99.90
1083;DHT22;530;51.448;7.238;2023-04-24T02:55:58;11.00;99.90
1083;DHT22;530;51.448;7.238;2023-04-24T02:58:24;11.00;99.90
1083;DHT22;530;51.448;7.238;2023-04-24T03:00:53;11.00;99.90
1083;DHT22;530;51.448;7.238;2023-04-24T03:03:21;11.00;99.90
1083;DHT22;530;51.448;7.238;2023-04-24T03:05:46;11.00;99.90
1083;DHT22;530;51.448;7.238;2023-04-24T03:08:12;11.00;99.90
1083;DHT22;530;51.448;7.238;2023-04-24T03:10:40;11.00;99.90
1083;DHT22;530;51.448;7.238;2023-04-24T03:13:05;11.00;99.90
1083;DHT22;530;51.448;7.238;2023-04-24T03:15:31;11.10;99.90
1083;DHT22;530;51.448;7.238;2023-04-24T03:17:57;11.00;99.90
1083;DHT22;530;51.448;7.238;2023-04-24T03:20:23;10.90;99.90
1083;DHT22;530;51.448;7.238;2023-04-24T03:22:48;10.90;99.90
1083;DHT22;530;51.448;7.238;2023-04-24T03:25:14;10.90;99.90
1083;DHT22;530;51.448;7.238;2023-04-24T03:27:40;10.90;99.90
1083;DHT22;530;51.448;7.238;2023-04-24T03:30:08;10.90;99.90
1083;DHT22;530;51.448;7.238;2023-04-24T03:32:34;11.00;99.90
1083;DHT22;530;51.448;7.238;2023-04-24T03:35:00;11.00;99.90
1083;DHT22;530;51.448;7.238;2023-04-24T03:37:26;11.00;99.90
1083;DHT22;530;51.448;7.238;2023-04-24T03:39:52;10.90;99.90
1083;DHT22;530;51.448;7.238;2023-04-24T03:42:18;11.00;99.90
1083;DHT22;530;51.448;7.238;2023-04-24T03:44:43;10.90;99.90
1083;DHT22;530;51.448;7.238;2023-04-24T03:47:09;10.90;99.90
1083;DHT22;530;51.448;7.238;2023-04-24T03:49:35;10.90;99.90
1083;DHT22;530;51.448;7.238;2023-04-24T03:52:00;10.90;99.90
1083;DHT22;530;51.448;7.238;2023-04-24T03:54:26;10.90;99.90
1083;DHT22;530;51.448;7.238;2023-04-24T03:56:52;10.90;99.90
1083;DHT22;530;51.448;7.238;2023-04-24T03:59:18;10.90;99.90
1083;DHT22;530;51.448;7.238;2023-04-24T04:01:43;10.90;99.90
1083;DHT22;530;51.448;7.238;2023-04-24T04:04:09;10.90;99.90
1083;DHT22;530;51.448;7.238;2023-04-24T04:06:35;10.90;99.90
1083;DHT22;530;51.448;7.238;2023-04-24T04:09:01;10.90;99.90
1083;DHT22;530;51.448;7.238;2023-04-24T04:11:28;11.00;99.90
1083;DHT22;530;51.448;7.238;2023-04-24T04:13:54;10.90;99.90
1083;DHT22;530;51.448;7.238;2023-04-24T04:16:20;10.90;99.90
1083;DHT22;530;51.448;7.238;2023-04-24T04:18:45;10.90;99.90
1083;DHT22;530;51.448;7.238;2023-04-24T04:21:11;10.90;99.90
1083;DHT22;530;51.448;7.238;2023-04-24T04:23:37;10.90;99.90
1083;DHT22;530;51.448;7.238;2023-04-24T04:26:03;10.90;99.90
1083;DHT22;530;51.448;7.238;2023-04-24T04:28:29;10.90;99.90
1083;DHT22;530;51.448;7.238;2023-04-24T04:30:57;10.90;99.90
1083;DHT22;530;51.448;7.238;2023-04-24T04:33:24;10.90;99.90
1083;DHT22;530;51.448;7.238;2023-04-24T04:35:50;10.90;99.90
1083;DHT22;530;51.448;7.238;2023-04-24T04:38:19;10.90;99.90
1083;DHT22;530;51.448;7.238;2023-04-24T04:40:45;10.90;99.90
1083;DHT22;530;51.448;7.238;2023-04-24T04:43:11;10.90;99.90
1083;DHT22;530;51.448;7.238;2023-04-24T04:45:39;10.90;99.90
1083;DHT22;530;51.448;7.238;2023-04-24T04:48:05;10.90;99.90
1083;DHT22;530;51.448;7.238;2023-04-24T04:50:33;10.90;99.90
1083;DHT22;530;51.448;7.238;2023-04-24T04:52:58;10.90;99.90
1083;DHT22;530;51.448;7.238;2023-04-24T04:55:24;10.90;99.90
1083;DHT22;530;51.448;7.238;2023-04-24T04:57:50;10.90;99.90
1083;DHT22;530;51.448;7.238;2023-04-24T05:00:16;10.90;99.90
1083;DHT22;530;51.448;7.238;2023-04-24T05:02:42;10.90;99.90
1083;DHT22;530;51.448;7.238;2023-04-24T05:05:08;10.90;99.90
1083;DHT22;530;51.448;7.238;2023-04-24T05:07:34;10.90;99.90
1083;DHT22;530;51.448;7.238;2023-04-24T05:10:00;10.90;99.90
1083;DHT22;530;51.448;7.238;2023-04-24T05:12:25;10.90;99.90
1083;DHT22;530;51.448;7.238;2023-04-24T05:14:52;10.90;99.90
1083;DHT22;530;51.448;7.238;2023-04-24T05:17:18;10.90;99.90
1083;DHT22;530;51.448;7.238;2023-04-24T05:19:43;10.90;99.90
1083;DHT22;530;51.448;7.238;2023-04-24T05:22:10;10.90;99.90
1083;DHT22;530;51.448;7.238;2023-04-24T05:24:37;10.90;99.90
1083;DHT22;530;51.448;7.238;2023-04-24T05:27:03;11.00;99.90
1083;DHT22;530;51.448;7.238;2023-04-24T05:29:30;10.90;99.90
1083;DHT22;530;51.448;7.238;2023-04-24T05:31:57;10.90;99.90
1083;DHT22;530;51.448;7.238;2023-04-24T05:34:23;10.90;99.90
1083;DHT22;530;51.448;7.238;2023-04-24T05:36:48;10.90;99.90
1083;DHT22;530;51.448;7.238;2023-04-24T05:39:16;10.80;99.90
1083;DHT22;530;51.448;7.238;2023-04-24T05:41:42;10.80;99.90
1083;DHT22;530;51.448;7.238;2023-04-24T05:44:08;10.80;99.90
1083;DHT22;530;51.448;7.238;2023-04-24T05:46:33;10.80;99.90
1083;DHT22;530;51.448;7.238;2023-04-24T05:48:59;10.70;99.90
1083;DHT22;530;51.448;7.238;2023-04-24T05:51:25;10.70;99.90
1083;DHT22;530;51.448;7.238;2023-04-24T05:53:51;10.70;99.90
1083;DHT22;530;51.448;7.238;2023-04-24T05:56:17;10.70;99.90
1083;DHT22;530;51.448;7.238;2023-04-24T05:58:44;10.70;99.90
1083;DHT22;530;51.448;7.238;2023-04-24T06:01:10;10.70;99.90
1083;DHT22;530;51.448;7.238;2023-04-24T06:03:36;10.70;99.90
1083;DHT22;530;51.448;7.238;2023-04-24T06:06:01;10.60;99.90
1083;DHT22;530;51.448;7.238;2023-04-24T06:08:27;10.60;99.90
1083;DHT22;530;51.448;7.238;2023-04-24T06:10:53;10.60;99.90
1083;DHT22;530;51.448;7.238;2023-04-24T06:13:18;10.60;99.90
1083;DHT22;530;51.448;7.238;2023-04-24T06:15:44;10.50;99.90
1083;DHT22;530;51.448;7.238;2023-04-24T06:18:10;10.50;99.90
1083;DHT22;530;51.448;7.238;2023-04-24T06:20:36;10.50;99.90
1083;DHT22;530;51.448;7.238;2023-04-24T06:23:02;10.50;99.90
1083;DHT22;530;51.448;7.238;2023-04-24T06:25:28;10.50;99.90
1083;DHT22;530;51.448;7.238;2023-04-24T06:27:54;10.50;99.90
1083;DHT22;530;51.448;7.238;2023-04-24T06:30:20;10.50;99.90
1083;DHT22;530;51.448;7.238;2023-04-24T06:32:45;10.60;99.90
1083;DHT22;530;51.448;7.238;2023-04-24T06:35:11;10.60;99.90
1083;DHT22;530;51.448;7.238;2023-04-24T06:37:39;10.60;99.90
1083;DHT22;530;51.448;7.238;2023-04-24T06:40:06;10.60;99.90
1083;DHT22;530;51.448;7.238;2023-04-24T06:42:31;10.50;99.90
1083;DHT22;530;51.448;7.238;2023-04-24T06:44:57;10.50;99.90
1083;DHT22;530;51.448;7.238;2023-04-24T06:47:23;10.50;99.90
1083;DHT22;530;51.448;7.238;2023-04-24T06:49:48;10.50;99.90
1083;DHT22;530;51.448;7.238;2023-04-24T06:52:16;10.50;99.90
1083;DHT22;530;51.448;7.238;2023-04-24T06:54:42;10.50;99.90
1083;DHT22;530;51.448;7.238;2023-04-24T06:57:08;10.50;99.90
1083;DHT22;530;51.448;7.238;2023-04-24T06:59:34;10.50;99.90
1083;DHT22;530;51.448;7.238;2023-04-24T07:02:00;10.50;99.90
1083;DHT22;530;51.448;7.238;2023-04-24T07:04:25;10.50;99.90
1083;DHT22;530;51.448;7.238;2023-04-24T07:06:51;10.60;99.90
1083;DHT22;530;51.448;7.238;2023-04-24T07:09:19;10.60;99.90
1083;DHT22;530;51.448;7.238;2023-04-24T07:11:46;10.50;99.90
1083;DHT22;530;51.448;7.238;2023-04-24T07:14:12;10.50;99.90
1083;DHT22;530;51.448;7.238;2023-04-24T07:16:37;10.60;99.90
1083;DHT22;530;51.448;7.238;2023-04-24T07:19:03;10.50;99.90
1083;DHT22;530;51.448;7.238;2023-04-24T07:21:29;10.50;99.90
1083;DHT22;530;51.448;7.238;2023-04-24T07:23:58;10.50;99.90
1083;DHT22;530;51.448;7.238;2023-04-24T07:26:23;10.50;99.90
1083;DHT22;530;51.448;7.238;2023-04-24T07:28:49;10.60;99.90
1083;DHT22;530;51.448;7.238;2023-04-24T07:31:15;10.60;99.90
1083;DHT22;530;51.448;7.238;2023-04-24T07:33:41;10.50;99.90
1083;DHT22;530;51.448;7.238;2023-04-24T07:36:06;10.50;99.90
1083;DHT22;530;51.448;7.238;2023-04-24T07:38:32;10.40;99.90
1083;DHT22;530;51.448;7.238;2023-04-24T07:40:58;10.50;99.90
1083;DHT22;530;51.448;7.238;2023-04-24T07:43:23;10.50;99.90
1083;DHT22;530;51.448;7.238;2023-04-24T07:45:52;10.50;99.90
1083;DHT22;530;51.448;7.238;2023-04-24T07:48:18;10.50;99.90
1083;DHT22;530;51.448;7.238;2023-04-24T07:50:44;10.50;99.90
1083;DHT22;530;51.448;7.238;2023-04-24T07:53:10;10.50;99.90
1083;DHT22;530;51.448;7.238;2023-04-24T07:55:36;10.50;99.90
1083;DHT22;530;51.448;7.238;2023-04-24T07:58:02;10.50;99.90
1083;DHT22;530;51.448;7.238;2023-04-24T08:00:27;10.50;99.90
1083;DHT22;530;51.448;7.238;2023-04-24T08:02:53;10.50;99.90
1083;DHT22;530;51.448;7.238;2023-04-24T08:05:18;10.50;99.90
1083;DHT22;530;51.448;7.238;2023-04-24T08:07:45;10.40;99.90
1083;DHT22;530;51.448;7.238;2023-04-24T08:10:14;10.30;99.90
1083;DHT22;530;51.448;7.238;2023-04-24T08:12:40;10.40;99.90
1083;DHT22;530;51.448;7.238;2023-04-24T08:15:06;10.40;99.90
1083;DHT22;530;51.448;7.238;2023-04-24T08:17:33;10.40;99.90
1083;DHT22;530;51.448;7.238;2023-04-24T08:19:59;10.30;99.90
1083;DHT22;530;51.448;7.238;2023-04-24T08:22:29;10.40;99.90
1083;DHT22;530;51.448;7.238;2023-04-24T08:24:56;10.30;99.90
1083;DHT22;530;51.448;7.238;2023-04-24T08:27:23;10.30;99.90
1083;DHT22;530;51.448;7.238;2023-04-24T08:29:49;10.20;99.90
1083;DHT22;530;51.448;7.238;2023-04-24T08:32:15;10.20;99.90
1083;DHT22;530;51.448;7.238;2023-04-24T08:34:40;10.20;99.90
1083;DHT22;530;51.448;7.238;2023-04-24T08:37:06;10.10;99.90
1083;DHT22;530;51.448;7.238;2023-04-24T08:39:32;10.10;99.90
1083;DHT22;530;51.448;7.238;2023-04-24T08:41:57;10.10;99.90
1083;DHT22;530;51.448;7.238;2023-04-24T08:44:32;10.00;99.90
1083;DHT22;530;51.448;7.238;2023-04-24T08:46:58;10.00;99.90
1083;DHT22;530;51.448;7.238;2023-04-24T08:49:24;10.00;99.90
1083;DHT22;530;51.448;7.238;2023-04-24T08:51:50;10.00;99.90
1083;DHT22;530;51.448;7.238;2023-04-24T08:54:18;10.00;99.90
1083;DHT22;530;51.448;7.238;2023-04-24T08:56:44;10.00;99.90
1083;DHT22;530;51.448;7.238;2023-04-24T08:59:10;10.00;99.90
1083;DHT22;530;51.448;7.238;2023-04-24T09:01:37;10.10;99.90
1083;DHT22;530;51.448;7.238;2023-04-24T09:04:07;10.10;99.90
1083;DHT22;530;51.448;7.238;2023-04-24T09:06:34;10.00;99.90
1083;DHT22;530;51.448;7.238;2023-04-24T09:09:01;10.00;99.90
1083;DHT22;530;51.448;7.238;2023-04-24T09:11:27;10.00;99.90
1083;DHT22;530;51.448;7.238;2023-04-24T09:13:54;10.00;99.90
1083;DHT22;530;51.448;7.238;2023-04-24T09:16:20;10.00;99.90
1083;DHT22;530;51.448;7.238;2023-04-24T09:18:48;9.90;99.90
1083;DHT22;530;51.448;7.238;2023-04-24T09:21:14;10.00;99.90
1083;DHT22;530;51.448;7.238;2023-04-24T09:23:40;10.10;99.90
1083;DHT22;530;51.448;7.238;2023-04-24T09:26:06;10.10;99.90
1083;DHT22;530;51.448;7.238;2023-04-24T09:28:39;10.10;99.90
1083;DHT22;530;51.448;7.238;2023-04-24T09:31:17;10.10;99.90
1083;DHT22;530;51.448;7.238;2023-04-24T09:34:20;10.20;99.90
1083;DHT22;530;51.448;7.238;2023-04-24T09:36:46;10.10;99.90
1083;DHT22;530;51.448;7.238;2023-04-24T09:39:13;10.10;99.90
1083;DHT22;530;51.448;7.238;2023-04-24T09:41:53;10.10;99.90
1083;DHT22;530;51.448;7.238;2023-04-24T09:44:20;10.20;99.90
1083;DHT22;530;51.448;7.238;2023-04-24T09:46:59;10.20;99.90
1083;DHT22;530;51.448;7.238;2023-04-24T09:49:29;10.20;99.90
1083;DHT22;530;51.448;7.238;2023-04-24T09:54:30;10.10;99.90
1083;DHT22;530;51.448;7.238;2023-04-24T09:56:56;10.10;99.90
1083;DHT22;530;51.448;7.238;2023-04-24T09:59:22;10.10;99.90
1083;DHT22;530;51.448;7.238;2023-04-24T10:01:48;10.10;99.90
1083;DHT22;530;51.448;7.238;2023-04-24T10:04:22;10.10;99.90
1083;DHT22;530;51.448;7.238;2023-04-24T10:06:50;10.20;99.90
1083;DHT22;530;51.448;7.238;2023-04-24T10:09:23;10.20;99.90
1083;DHT22;530;51.448;7.238;2023-04-24T10:11:51;10.20;99.90
1083;DHT22;530;51.448;7.238;2023-04-24T10:14:23;10.20;99.90
1083;DHT22;530;51.448;7.238;2023-04-24T10:16:50;10.10;99.90
1083;DHT22;530;51.448;7.238;2023-04-24T10:19:18;10.20;99.90
1083;DHT22;530;51.448;7.238;2023-04-24T10:21:46;10.20;99.90
1083;DHT22;530;51.448;7.238;2023-04-24T10:24:14;10.10;99.90
1083;DHT22;530;51.448;7.238;2023-04-24T10:26:40;10.10;99.90
1083;DHT22;530;51.448;7.238;2023-04-24T10:29:06;10.10;99.90
1083;DHT22;530;51.448;7.238;2023-04-24T10:31:36;10.00;99.90
1083;DHT22;530;51.448;7.238;2023-04-24T10:34:05;10.00;99.90
1083;DHT22;530;51.448;7.238;2023-04-24T10:36:33;10.10;99.90
1083;DHT22;530;51.448;7.238;2023-04-24T10:39:02;10.00;99.90
1083;DHT22;530;51.448;7.238;2023-04-24T10:41:30;10.10;99.90
1083;DHT22;530;51.448;7.238;2023-04-24T10:44:10;10.20;99.90
1083;DHT22;530;51.448;7.238;2023-04-24T10:46:37;10.20;99.90
1083;DHT22;530;51.448;7.238;2023-04-24T10:49:06;10.20;99.90
1083;DHT22;530;51.448;7.238;2023-04-24T10:51:53;10.30;99.90
1083;DHT22;530;51.448;7.238;2023-04-24T11:00:15;10.20;99.90
1083;DHT22;530;51.448;7.238;2023-04-24T11:02:41;10.20;99.90
1083;DHT22;530;51.448;7.238;2023-04-24T11:05:17;10.20;99.90
1083;DHT22;530;51.448;7.238;2023-04-24T11:10:44;10.20;99.90
1083;DHT22;530;51.448;7.238;2023-04-24T11:13:10;10.20;99.90
1083;DHT22;530;51.448;7.238;2023-04-24T11:15:36;10.30;99.90
1083;DHT22;530;51.448;7.238;2023-04-24T11:18:01;10.40;99.90
1083;DHT22;530;51.448;7.238;2023-04-24T11:20:27;10.40;99.90
1083;DHT22;530;51.448;7.238;2023-04-24T11:22:54;10.40;99.90
1083;DHT22;530;51.448;7.238;2023-04-24T11:25:21;10.40;99.90
1083;DHT22;530;51.448;7.238;2023-04-24T11:27:47;10.40;99.90
1083;DHT22;530;51.448;7.238;2023-04-24T11:30:20;10.40;99.90
1083;DHT22;530;51.448;7.238;2023-04-24T11:32:50;10.40;99.90
1083;DHT22;530;51.448;7.238;2023-04-24T11:35:21;10.30;99.90
1083;DHT22;530;51.448;7.238;2023-04-24T11:37:54;10.40;99.90
1083;DHT22;530;51.448;7.238;2023-04-24T11:40:21;10.50;99.90
1083;DHT22;530;51.448;7.238;2023-04-24T11:42:51;10.50;99.90
1083;DHT22;530;51.448;7.238;2023-04-24T11:45:22;10.50;99.90
1083;DHT22;530;51.448;7.238;2023-04-24T11:47:48;10.50;99.90
1083;DHT22;530;51.448;7.238;2023-04-24T11:50:16;10.60;99.90
1083;DHT22;530;51.448;7.238;2023-04-24T11:52:44;10.60;99.90
1083;DHT22;530;51.448;7.238;2023-04-24T11:57:46;10.60;99.90
1083;DHT22;530;51.448;7.238;2023-04-24T12:00:19;10.60;99.90
1083;DHT22;530;51.448;7.238;2023-04-24T12:02:46;10.50;99.90
1083;DHT22;530;51.448;7.238;2023-04-24T12:05:32;10.40;99.90
1083;DHT22;530;51.448;7.238;2023-04-24T12:07:57;10.40;99.90
1083;DHT22;530;51.448;7.238;2023-04-24T12:10:25;10.40;99.90
1083;DHT22;530;51.448;7.238;2023-04-24T12:12:52;10.40;99.90
1083;DHT22;530;51.448;7.238;2023-04-24T12:15:19;10.30;99.90
1083;DHT22;530;51.448;7.238;2023-04-24T12:17:46;10.30;99.90
1083;DHT22;530;51.448;7.238;2023-04-24T12:20:13;10.40;99.90
1083;DHT22;530;51.448;7.238;2023-04-24T12:22:53;10.50;99.90
1083;DHT22;530;51.448;7.238;2023-04-24T12:25:27;10.60;99.90
1083;DHT22;530;51.448;7.238;2023-04-24T12:28:12;10.70;99.90
1083;DHT22;530;51.448;7.238;2023-04-24T12:30:48;10.80;99.90
1083;DHT22;530;51.448;7.238;2023-04-24T12:33:19;10.90;99.90
1083;DHT22;530;51.448;7.238;2023-04-24T12:35:47;10.90;99.90
1083;DHT22;530;51.448;7.238;2023-04-24T12:38:13;10.90;99.90
1083;DHT22;530;51.448;7.238;2023-04-24T12:40:40;11.00;99.90
1083;DHT22;530;51.448;7.238;2023-04-24T12:43:27;10.90;99.90
1083;DHT22;530;51.448;7.238;2023-04-24T12:45:53;10.90;99.90
1083;DHT22;530;51.448;7.238;2023-04-24T12:48:18;10.80;99.90
1083;DHT22;530;51.448;7.238;2023-04-24T12:50:45;10.80;99.90
1083;DHT22;530;51.448;7.238;2023-04-24T12:53:11;10.80;99.90
1083;DHT22;530;51.448;7.238;2023-04-24T12:55:37;10.80;99.90
1083;DHT22;530;51.448;7.238;2023-04-24T12:58:03;10.80;99.90
1083;DHT22;530;51.448;7.238;2023-04-24T13:00:28;10.80;99.90
1083;DHT22;530;51.448;7.238;2023-04-24T13:02:54;10.80;99.90
1083;DHT22;530;51.448;7.238;2023-04-24T13:05:20;10.80;99.90
1083;DHT22;530;51.448;7.238;2023-04-24T13:07:46;10.80;99.90
1083;DHT22;530;51.448;7.238;2023-04-24T13:10:12;10.80;99.90
1083;DHT22;530;51.448;7.238;2023-04-24T13:12:39;10.80;99.90
1083;DHT22;530;51.448;7.238;2023-04-24T13:15:05;10.80;99.90
1083;DHT22;530;51.448;7.238;2023-04-24T13:17:31;10.80;99.90
1083;DHT22;530;51.448;7.238;2023-04-24T13:19:57;10.90;99.90
1083;DHT22;530;51.448;7.238;2023-04-24T13:22:22;10.90;99.90
1083;DHT22;530;51.448;7.238;2023-04-24T13:24:48;10.90;99.90
1083;DHT22;530;51.448;7.238;2023-04-24T13:27:15;11.00;99.90
1083;DHT22;530;51.448;7.238;2023-04-24T13:29:41;11.00;99.90
1083;DHT22;530;51.448;7.238;2023-04-24T13:32:08;11.00;99.90
1083;DHT22;530;51.448;7.238;2023-04-24T13:34:34;11.00;99.90
1083;DHT22;530;51.448;7.238;2023-04-24T13:37:03;11.00;99.90
1083;DHT22;530;51.448;7.238;2023-04-24T13:39:31;11.00;99.90
1083;DHT22;530;51.448;7.238;2023-04-24T13:41:58;11.00;99.90
1083;DHT22;530;51.448;7.238;2023-04-24T13:44:24;11.00;99.90
1083;DHT22;530;51.448;7.238;2023-04-24T13:46:52;11.00;99.90
1083;DHT22;530;51.448;7.238;2023-04-24T13:49:20;11.00;99.90
1083;DHT22;530;51.448;7.238;2023-04-24T13:51:46;11.00;99.90
1083;DHT22;530;51.448;7.238;2023-04-24T13:54:11;11.00;99.90
1083;DHT22;530;51.448;7.238;2023-04-24T13:56:39;10.90;99.90
1083;DHT22;530;51.448;7.238;2023-04-24T13:59:05;11.00;99.90
1083;DHT22;530;51.448;7.238;2023-04-24T14:01:31;11.00;99.90
1083;DHT22;530;51.448;7.238;2023-04-24T14:03:56;11.00;99.90
1083;DHT22;530;51.448;7.238;2023-04-24T14:06:22;11.00;99.90
1083;DHT22;530;51.448;7.238;2023-04-24T14:08:49;11.10;99.90
1083;DHT22;530;51.448;7.238;2023-04-24T14:11:15;11.00;99.90
1083;DHT22;530;51.448;7.238;2023-04-24T14:13:42;11.00;99.90
1083;DHT22;530;51.448;7.238;2023-04-24T14:16:09;11.10;99.90
1083;DHT22;530;51.448;7.238;2023-04-24T14:18:35;11.10;99.90
1083;DHT22;530;51.448;7.238;2023-04-24T14:21:04;11.10;99.90
1083;DHT22;530;51.448;7.238;2023-04-24T14:23:30;11.10;99.90
1083;DHT22;530;51.448;7.238;2023-04-24T14:25:57;11.20;99.90
1083;DHT22;530;51.448;7.238;2023-04-24T14:28:23;11.20;99.90
1083;DHT22;530;51.448;7.238;2023-04-24T14:30:48;11.30;99.90
1083;DHT22;530;51.448;7.238;2023-04-24T14:33:14;11.30;99.90
1083;DHT22;530;51.448;7.238;2023-04-24T14:35:41;11.30;99.90
1083;DHT22;530;51.448;7.238;2023-04-24T14:38:10;11.30;99.90
1083;DHT22;530;51.448;7.238;2023-04-24T14:40:36;11.30;99.90
1083;DHT22;530;51.448;7.238;2023-04-24T14:43:02;11.30;99.90
1083;DHT22;530;51.448;7.238;2023-04-24T14:45:28;11.30;99.90
1083;DHT22;530;51.448;7.238;2023-04-24T14:47:55;11.30;99.90
1083;DHT22;530;51.448;7.238;2023-04-24T14:50:21;11.30;99.90
1083;DHT22;530;51.448;7.238;2023-04-24T14:52:47;11.30;99.90
1083;DHT22;530;51.448;7.238;2023-04-24T14:55:13;11.20;99.90
1083;DHT22;530;51.448;7.238;2023-04-24T14:57:39;11.30;99.90
1083;DHT22;530;51.448;7.238;2023-04-24T15:00:06;11.20;99.90
1083;DHT22;530;51.448;7.238;2023-04-24T15:02:34;11.20;99.90
1083;DHT22;530;51.448;7.238;2023-04-24T15:05:02;11.20;99.90
1083;DHT22;530;51.448;7.238;2023-04-24T15:07:28;11.20;99.90
1083;DHT22;530;51.448;7.238;2023-04-24T15:09:54;11.30;99.90
1083;DHT22;530;51.448;7.238;2023-04-24T15:12:20;11.20;99.90
1083;DHT22;530;51.448;7.238;2023-04-24T15:14:47;11.20;99.90
1083;DHT22;530;51.448;7.238;2023-04-24T15:17:12;11.20;99.90
1083;DHT22;530;51.448;7.238;2023-04-24T15:19:38;11.20;99.90
1083;DHT22;530;51.448;7.238;2023-04-24T15:22:04;11.10;99.90
1083;DHT22;530;51.448;7.238;2023-04-24T15:24:29;11.10;99.90
1083;DHT22;530;51.448;7.238;2023-04-24T15:26:55;11.00;99.90
1083;DHT22;530;51.448;7.238;2023-04-24T15:29:21;11.00;99.90
1083;DHT22;530;51.448;7.238;2023-04-24T15:31:47;11.00;99.90
1083;DHT22;530;51.448;7.238;2023-04-24T15:34:12;11.00;99.90
1083;DHT22;530;51.448;7.238;2023-04-24T15:36:38;11.10;99.90
1083;DHT22;530;51.448;7.238;2023-04-24T15:39:04;11.10;99.90
1083;DHT22;530;51.448;7.238;2023-04-24T15:41:30;11.10;99.90
1083;DHT22;530;51.448;7.238;2023-04-24T15:43:57;11.20;99.90
1083;DHT22;530;51.448;7.238;2023-04-24T15:46:22;11.20;99.90
1083;DHT22;530;51.448;7.238;2023-04-24T15:48:48;11.20;99.90
1083;DHT22;530;51.448;7.238;2023-04-24T15:51:14;11.30;99.90
1083;DHT22;530;51.448;7.238;2023-04-24T15:53:40;11.30;99.90
1083;DHT22;530;51.448;7.238;2023-04-24T15:56:06;11.20;99.90
1083;DHT22;530;51.448;7.238;2023-04-24T15:58:31;11.20;99.90
1083;DHT22;530;51.448;7.238;2023-04-24T16:00:57;11.20;99.90
1083;DHT22;530;51.448;7.238;2023-04-24T16:03:23;11.20;99.90
1083;DHT22;530;51.448;7.238;2023-04-24T16:05:49;11.30;99.90
1083;DHT22;530;51.448;7.238;2023-04-24T16:08:14;11.30;99.90
1083;DHT22;530;51.448;7.238;2023-04-24T16:10:41;11.40;99.90
1083;DHT22;530;51.448;7.238;2023-04-24T16:13:07;11.40;99.90
1083;DHT22;530;51.448;7.238;2023-04-24T16:15:33;11.40;99.90
1083;DHT22;530;51.448;7.238;2023-04-24T16:18:00;11.40;99.90
1083;DHT22;530;51.448;7.238;2023-04-24T16:20:26;11.40;99.90
1083;DHT22;530;51.448;7.238;2023-04-24T16:22:52;11.40;99.90
1083;DHT22;530;51.448;7.238;2023-04-24T16:25:17;11.50;99.90
1083;DHT22;530;51.448;7.238;2023-04-24T16:27:43;11.40;99.90